createdAt,value
2018-07-20T00:01:57.137Z,17.18
2018-07-20T00:04:25.935Z,17.13
2018-07-20T00:06:55.726Z,17.02
2018-07-20T00:09:24.468Z,16.95
2018-07-20T00:11:53.311Z,16.91
2018-07-20T00:14:22.097Z,16.83
2018-07-20T00:16:50.984Z,16.99
2018-07-20T00:19:19.819Z,16.85
2018-07-20T00:21:48.677Z,16.91
2018-07-20T00:24:17.708Z,17.04
2018-07-20T00:26:46.499Z,17.00
2018-07-20T00:29:15.264Z,16.96
2018-07-20T00:31:44.172Z,16.86
2018-07-20T00:34:12.907Z,16.81
2018-07-20T00:36:41.695Z,16.81
2018-07-20T00:39:11.206Z,16.94
2018-07-20T00:41:40.247Z,16.82
2018-07-20T00:44:09.170Z,16.67
2018-07-20T00:46:37.998Z,16.77
2018-07-20T00:49:06.792Z,16.72
2018-07-20T00:51:35.565Z,16.48
2018-07-20T00:54:04.544Z,16.56
2018-07-20T00:56:33.195Z,16.57
2018-07-20T00:59:02.016Z,16.56
2018-07-20T01:01:30.807Z,16.66
2018-07-20T01:03:59.617Z,16.73
2018-07-20T01:06:28.384Z,16.69
2018-07-20T01:08:57.064Z,16.60
2018-07-20T01:11:25.875Z,16.68
2018-07-20T01:13:54.707Z,16.79
2018-07-20T01:16:23.715Z,16.42
2018-07-20T01:18:52.588Z,16.45
2018-07-20T01:21:21.434Z,16.48
2018-07-20T01:23:50.248Z,16.43
2018-07-20T01:26:19.004Z,16.35
2018-07-20T01:28:47.834Z,16.31
2018-07-20T01:31:16.623Z,16.29
2018-07-20T01:33:45.519Z,16.30
2018-07-20T01:36:14.283Z,16.27
2018-07-20T01:38:43.083Z,16.24
2018-07-20T01:41:11.831Z,16.26
2018-07-20T01:43:40.663Z,16.36
2018-07-20T01:46:10.283Z,16.29
2018-07-20T01:48:39.159Z,16.27
2018-07-20T01:51:07.951Z,16.31
2018-07-20T01:53:36.711Z,16.23
2018-07-20T01:56:05.570Z,16.25
2018-07-20T01:58:34.407Z,15.97
2018-07-20T02:01:03.254Z,16.19
2018-07-20T02:03:31.849Z,16.03
2018-07-20T02:06:07.363Z,16.15
2018-07-20T02:08:36.251Z,16.19
2018-07-20T02:11:09.600Z,16.27
2018-07-20T02:13:38.411Z,16.07
2018-07-20T02:16:07.285Z,16.22
2018-07-20T02:18:36.135Z,16.10
2018-07-20T02:21:05.019Z,15.94
2018-07-20T02:23:33.785Z,15.98
2018-07-20T02:26:03.196Z,16.04
2018-07-20T02:28:31.976Z,16.06
2018-07-20T02:31:00.796Z,15.88
2018-07-20T02:33:29.688Z,15.83
2018-07-20T02:35:58.586Z,15.97
2018-07-20T02:38:27.408Z,15.96
2018-07-20T02:40:56.232Z,15.97
2018-07-20T02:43:25.007Z,15.86
2018-07-20T02:45:53.749Z,16.03
2018-07-20T02:48:22.326Z,15.80
2018-07-20T02:50:51.104Z,15.90
2018-07-20T02:53:19.949Z,15.80
2018-07-20T02:55:48.707Z,15.68
2018-07-20T02:58:17.728Z,15.81
2018-07-20T03:00:46.518Z,15.83
2018-07-20T03:03:15.327Z,15.69
2018-07-20T03:05:44.091Z,15.89
2018-07-20T03:08:12.915Z,15.93
2018-07-20T03:10:41.742Z,15.86
2018-07-20T03:13:10.539Z,15.91
2018-07-20T03:15:39.145Z,15.86
2018-07-20T03:18:07.999Z,15.93
2018-07-20T03:20:36.771Z,15.88
2018-07-20T03:23:05.911Z,15.93
2018-07-20T03:25:34.659Z,15.85
2018-07-20T03:28:03.462Z,16.02
2018-07-20T03:30:32.248Z,16.09
2018-07-20T03:33:01.119Z,15.87
2018-07-20T03:35:29.925Z,15.87
2018-07-20T03:37:58.781Z,15.68
2018-07-20T03:40:27.696Z,15.78
2018-07-20T03:42:56.584Z,15.79
2018-07-20T03:45:31.541Z,15.73
2018-07-20T03:48:00.388Z,15.78
2018-07-20T03:50:29.183Z,15.70
2018-07-20T03:52:57.957Z,15.79
2018-07-20T03:55:26.852Z,15.97
2018-07-20T03:57:55.667Z,15.80
2018-07-20T04:00:24.516Z,15.78
2018-07-20T04:02:53.257Z,15.86
2018-07-20T04:05:22.082Z,16.08
2018-07-20T04:07:50.856Z,15.87
2018-07-20T04:10:19.747Z,15.87
2018-07-20T04:12:48.599Z,16.06
2018-07-20T04:15:17.418Z,16.16
2018-07-20T04:17:46.255Z,16.25
2018-07-20T04:20:16.072Z,16.38
2018-07-20T04:22:44.927Z,16.32
2018-07-20T04:25:13.843Z,16.33
2018-07-20T04:27:42.620Z,16.19
2018-07-20T04:30:13.778Z,16.25
2018-07-20T04:32:42.425Z,16.11
2018-07-20T04:35:11.472Z,16.31
2018-07-20T04:37:40.613Z,16.32
2018-07-20T04:40:09.450Z,16.19
2018-07-20T04:42:38.188Z,16.31
2018-07-20T04:45:07.138Z,16.38
2018-07-20T04:47:35.916Z,16.17
2018-07-20T04:50:05.639Z,16.13
2018-07-20T04:52:34.467Z,16.10
2018-07-20T04:55:03.371Z,16.15
2018-07-20T04:57:32.180Z,16.32
2018-07-20T05:00:00.965Z,16.15
2018-07-20T05:02:29.808Z,16.25
2018-07-20T05:04:58.607Z,16.37
2018-07-20T05:07:27.455Z,16.49
2018-07-20T05:09:56.070Z,16.48
2018-07-20T05:12:24.888Z,16.41
2018-07-20T05:14:53.744Z,16.26
2018-07-20T05:17:22.535Z,16.63
2018-07-20T05:19:51.363Z,16.46
2018-07-20T05:22:20.166Z,16.48
2018-07-20T05:24:48.976Z,16.46
2018-07-20T05:27:17.840Z,16.69
2018-07-20T05:29:46.594Z,16.63
2018-07-20T05:32:15.436Z,16.24
2018-07-20T05:34:44.219Z,16.27
2018-07-20T05:37:13.084Z,16.46
2018-07-20T05:39:41.943Z,16.46
2018-07-20T05:42:10.799Z,16.49
2018-07-20T05:44:39.583Z,16.61
2018-07-20T05:47:08.403Z,16.50
2018-07-20T05:49:37.034Z,16.63
2018-07-20T05:52:05.746Z,16.78
2018-07-20T05:54:34.591Z,16.91
2018-07-20T05:57:03.374Z,16.87
2018-07-20T05:59:32.414Z,16.62
2018-07-20T06:02:01.546Z,16.79
2018-07-20T06:04:30.436Z,17.01
2018-07-20T06:06:59.042Z,17.03
2018-07-20T06:09:27.851Z,16.90
2018-07-20T06:11:56.652Z,16.98
2018-07-20T06:14:25.464Z,17.13
2018-07-20T06:16:54.398Z,17.12
2018-07-20T06:19:23.253Z,17.22
2018-07-20T06:21:52.044Z,16.96
2018-07-20T06:24:20.903Z,17.18
2018-07-20T06:26:49.685Z,17.36
2018-07-20T06:29:18.394Z,17.23
2018-07-20T06:31:47.307Z,17.20
2018-07-20T06:34:16.120Z,17.32
2018-07-20T06:36:44.710Z,17.19
2018-07-20T06:39:13.373Z,17.36
2018-07-20T06:41:42.443Z,17.45
2018-07-20T06:44:11.331Z,17.66
2018-07-20T06:46:40.127Z,18.00
2018-07-20T06:49:08.949Z,18.08
2018-07-20T06:51:37.815Z,18.42
2018-07-20T06:54:06.686Z,18.74
2018-07-20T06:56:35.539Z,18.56
2018-07-20T06:59:04.475Z,18.54
2018-07-20T07:01:33.627Z,18.64
2018-07-20T07:04:02.473Z,18.36
2018-07-20T07:06:31.367Z,18.67
2018-07-20T07:09:00.160Z,18.72
2018-07-20T07:11:29.055Z,19.42
2018-07-20T07:13:57.839Z,20.03
2018-07-20T07:16:26.515Z,20.54
2018-07-20T07:18:55.423Z,19.98
2018-07-20T07:21:24.307Z,20.12
2018-07-20T07:23:53.062Z,20.36
2018-07-20T07:26:21.867Z,19.75
2018-07-20T07:28:50.741Z,20.33
2018-07-20T07:31:19.672Z,20.29
2018-07-20T07:33:48.448Z,20.48
2018-07-20T07:36:17.324Z,21.36
2018-07-20T07:38:46.135Z,20.85
2018-07-20T07:41:14.917Z,20.47
2018-07-20T07:43:43.778Z,20.47
2018-07-20T07:46:12.565Z,20.97
2018-07-20T07:48:41.392Z,20.76
2018-07-20T07:51:10.164Z,21.06
2018-07-20T07:53:38.976Z,20.94
2018-07-20T07:56:07.713Z,20.65
2018-07-20T07:58:36.634Z,20.06
2018-07-20T08:01:05.491Z,20.17
2018-07-20T08:03:34.434Z,20.36
2018-07-20T08:06:03.179Z,20.12
2018-07-20T08:08:32.072Z,20.74
2018-07-20T08:11:00.888Z,21.14
2018-07-20T08:13:29.715Z,21.45
2018-07-20T08:15:58.512Z,21.48
2018-07-20T08:18:27.406Z,21.31
2018-07-20T08:20:56.404Z,22.43
2018-07-20T08:23:25.242Z,22.57
2018-07-20T08:25:54.015Z,21.40
2018-07-20T08:28:22.848Z,22.32
2018-07-20T08:30:51.620Z,22.35
2018-07-20T08:33:20.482Z,22.07
2018-07-20T08:35:49.249Z,22.72
2018-07-20T08:38:18.058Z,22.40
2018-07-20T08:40:46.919Z,22.62
2018-07-20T08:43:15.700Z,22.37
2018-07-20T08:45:50.555Z,22.92
2018-07-20T08:48:19.324Z,23.07
2018-07-20T08:50:48.153Z,22.98
2018-07-20T08:53:16.973Z,22.99
2018-07-20T08:55:45.677Z,23.38
2018-07-20T08:58:14.452Z,22.96
2018-07-20T09:00:43.315Z,23.18
2018-07-20T09:03:12.069Z,23.11
2018-07-20T09:05:40.939Z,22.73
2018-07-20T09:08:09.790Z,22.93
2018-07-20T09:10:38.445Z,22.70
2018-07-20T09:13:07.261Z,23.02
2018-07-20T09:15:36.205Z,22.99
2018-07-20T09:18:05.027Z,23.18
2018-07-20T09:20:34.014Z,23.17
2018-07-20T09:23:03.027Z,23.55
2018-07-20T09:25:31.692Z,23.56
2018-07-20T09:28:00.558Z,24.00
2018-07-20T09:30:29.396Z,23.14
2018-07-20T09:32:58.302Z,24.24
2018-07-20T09:35:27.127Z,24.61
2018-07-20T09:37:56.339Z,24.11
2018-07-20T09:40:25.245Z,23.82
2018-07-20T09:42:54.156Z,23.46
2018-07-20T09:45:28.980Z,23.61
2018-07-20T09:47:57.808Z,24.15
2018-07-20T09:50:26.571Z,23.41
2018-07-20T09:52:55.383Z,23.86
2018-07-20T09:55:24.283Z,23.66
2018-07-20T09:57:53.098Z,24.00
2018-07-20T10:00:27.507Z,23.78
2018-07-20T10:02:56.476Z,23.80
2018-07-20T10:05:25.378Z,23.87
2018-07-20T10:07:54.248Z,24.09
2018-07-20T10:10:22.881Z,24.49
2018-07-20T10:12:51.715Z,24.07
2018-07-20T10:15:20.520Z,24.63
2018-07-20T10:17:49.439Z,24.19
2018-07-20T10:20:18.279Z,24.42
2018-07-20T10:22:47.167Z,24.51
2018-07-20T10:25:15.917Z,24.54
2018-07-20T10:30:13.603Z,24.57
2018-07-20T10:32:42.412Z,24.58
2018-07-20T10:35:11.196Z,24.83
2018-07-20T10:37:40.018Z,24.58
2018-07-20T10:40:08.852Z,24.74
2018-07-20T10:42:37.705Z,24.38
2018-07-20T10:45:06.915Z,25.09
2018-07-20T10:47:35.726Z,25.08
2018-07-20T10:50:05.224Z,24.78
2018-07-20T10:52:34.065Z,25.03
2018-07-20T10:55:02.981Z,25.25
2018-07-20T10:57:31.759Z,25.62
2018-07-20T11:00:00.631Z,25.37
2018-07-20T11:02:29.479Z,25.09
2018-07-20T11:04:58.307Z,25.35
2018-07-20T11:07:27.149Z,25.45
2018-07-20T11:09:56.039Z,25.13
2018-07-20T11:12:24.685Z,25.87
2018-07-20T11:14:53.502Z,25.57
2018-07-20T11:17:22.274Z,25.34
2018-07-20T11:19:51.252Z,25.00
2018-07-20T11:22:20.069Z,25.45
2018-07-20T11:24:48.918Z,25.74
2018-07-20T11:27:17.708Z,25.06
2018-07-20T11:29:46.560Z,25.38
2018-07-20T11:32:15.741Z,25.49
2018-07-20T11:34:44.602Z,25.26
2018-07-20T11:37:13.459Z,25.50
2018-07-20T11:39:42.299Z,25.73
2018-07-20T11:42:11.200Z,25.63
2018-07-20T11:44:40.038Z,25.57
2018-07-20T11:47:09.254Z,26.00
2018-07-20T11:49:38.069Z,25.59
2018-07-20T11:52:06.886Z,25.67
2018-07-20T11:54:35.489Z,25.75
2018-07-20T11:57:04.357Z,26.25
2018-07-20T11:59:33.531Z,26.55
2018-07-20T12:02:02.350Z,26.29
2018-07-20T12:04:31.010Z,25.84
2018-07-20T12:06:59.874Z,25.75
2018-07-20T12:09:29.103Z,25.76
2018-07-20T12:11:57.939Z,25.60
2018-07-20T12:14:26.724Z,25.47
2018-07-20T12:16:55.616Z,25.67
2018-07-20T12:19:24.476Z,25.23
2018-07-20T12:21:53.740Z,25.71
2018-07-20T12:24:22.494Z,25.57
2018-07-20T12:26:51.121Z,25.49
2018-07-20T12:29:19.903Z,25.88
2018-07-20T12:31:48.781Z,25.75
2018-07-20T12:34:17.485Z,25.69
2018-07-20T12:36:46.327Z,26.31
2018-07-20T12:39:15.177Z,26.48
2018-07-20T12:41:43.996Z,26.74
2018-07-20T12:44:12.815Z,26.82
2018-07-20T12:46:41.708Z,26.31
2018-07-20T12:49:10.365Z,26.29
2018-07-20T12:51:39.130Z,26.44
2018-07-20T12:54:07.950Z,26.24
2018-07-20T12:56:36.788Z,26.20
2018-07-20T12:59:05.752Z,26.20
2018-07-20T13:01:34.529Z,26.08
2018-07-20T13:04:03.414Z,26.30
2018-07-20T13:06:32.198Z,26.27
2018-07-20T13:09:00.989Z,26.53
2018-07-20T13:11:30.237Z,26.56
2018-07-20T13:13:59.070Z,26.65
2018-07-20T13:16:27.846Z,26.47
2018-07-20T13:18:57.583Z,27.01
2018-07-20T13:21:26.342Z,27.04
2018-07-20T13:23:55.463Z,26.74
2018-07-20T13:26:24.503Z,26.36
2018-07-20T13:28:53.327Z,26.64
2018-07-20T13:31:22.101Z,26.99
2018-07-20T13:33:50.920Z,27.02
2018-07-20T13:36:19.823Z,26.73
2018-07-20T13:38:48.563Z,26.82
2018-07-20T13:41:17.411Z,26.73
2018-07-20T13:43:46.196Z,26.45
2018-07-20T13:46:15.063Z,26.52
2018-07-20T13:48:43.938Z,27.08
2018-07-20T13:51:12.784Z,27.03
2018-07-20T13:53:41.394Z,26.90
2018-07-20T13:56:10.212Z,27.00
2018-07-20T13:58:39.016Z,27.05
2018-07-20T14:01:07.905Z,27.21
2018-07-20T14:03:36.702Z,27.19
2018-07-20T14:06:06.188Z,26.79
2018-07-20T14:08:35.024Z,27.35
2018-07-20T14:11:03.882Z,27.59
2018-07-20T14:13:32.747Z,27.76
2018-07-20T14:16:01.623Z,27.19
2018-07-20T14:18:30.404Z,27.52
2018-07-20T14:20:59.378Z,27.06
2018-07-20T14:23:28.233Z,27.44
2018-07-20T14:25:57.132Z,27.55
2018-07-20T14:28:25.908Z,27.87
2018-07-20T14:30:54.830Z,27.32
2018-07-20T14:33:23.816Z,27.36
2018-07-20T14:35:52.610Z,27.62
2018-07-20T14:38:21.527Z,27.57
2018-07-20T14:40:50.601Z,27.79
2018-07-20T14:43:19.446Z,27.89
2018-07-20T14:45:51.211Z,27.37
2018-07-20T14:48:19.814Z,27.84
2018-07-20T14:50:48.691Z,27.44
2018-07-20T14:53:17.528Z,27.29
2018-07-20T14:55:46.328Z,27.69
2018-07-20T14:58:15.326Z,27.11
2018-07-20T15:00:44.148Z,27.14
2018-07-20T15:03:13.034Z,26.96
2018-07-20T15:05:41.808Z,26.66
2018-07-20T15:08:10.591Z,26.85
2018-07-20T15:10:39.299Z,26.75
2018-07-20T15:13:08.100Z,26.98
2018-07-20T15:15:36.951Z,26.76
2018-07-20T15:18:05.962Z,26.43
2018-07-20T15:20:34.677Z,26.48
2018-07-20T15:23:03.491Z,26.52
2018-07-20T15:25:32.250Z,26.55
2018-07-20T15:28:01.134Z,26.97
2018-07-20T15:30:29.920Z,27.34
2018-07-20T15:32:58.671Z,27.45
2018-07-20T15:35:27.462Z,27.43
2018-07-20T15:37:56.258Z,27.50
2018-07-20T15:40:25.267Z,27.73
2018-07-20T15:42:54.044Z,27.53
2018-07-20T15:45:29.052Z,27.64
2018-07-20T15:47:57.844Z,27.57
2018-07-20T15:50:26.770Z,27.65
2018-07-20T15:53:36.265Z,27.91
2018-07-20T15:55:24.253Z,27.54
2018-07-20T15:57:53.144Z,27.26
2018-07-20T16:00:21.789Z,27.32
2018-07-20T16:02:50.612Z,27.48
2018-07-20T16:05:19.257Z,27.46
2018-07-20T16:07:48.035Z,27.88
2018-07-20T16:10:16.838Z,27.48
2018-07-20T16:12:45.605Z,27.87
2018-07-20T16:15:14.579Z,27.65
2018-07-20T16:17:43.358Z,27.28
2018-07-20T16:20:12.566Z,27.11
2018-07-20T16:22:41.361Z,27.23
2018-07-20T16:25:10.215Z,27.06
2018-07-20T16:27:39.083Z,27.22
2018-07-20T16:30:07.957Z,27.13
2018-07-20T16:32:36.995Z,27.15
2018-07-20T16:35:05.970Z,26.87
2018-07-20T16:37:34.861Z,26.87
2018-07-20T16:40:04.019Z,26.85
2018-07-20T16:42:32.806Z,27.11
2018-07-20T16:45:01.584Z,26.83
2018-07-20T16:47:30.278Z,26.84
2018-07-20T16:49:59.050Z,26.85
2018-07-20T16:52:28.028Z,26.72
2018-07-20T16:54:56.846Z,27.05
2018-07-20T16:57:25.722Z,26.63
2018-07-20T16:59:54.490Z,26.80
2018-07-20T17:02:23.349Z,26.56
2018-07-20T17:04:52.273Z,26.54
2018-07-20T17:07:21.092Z,26.41
2018-07-20T17:09:49.702Z,26.49
2018-07-20T17:12:18.550Z,26.31
2018-07-20T17:14:47.327Z,26.35
2018-07-20T17:17:16.251Z,26.31
2018-07-20T17:19:44.927Z,26.24
2018-07-20T17:22:13.847Z,26.08
2018-07-20T17:24:42.663Z,25.92
2018-07-20T17:27:11.552Z,25.91
2018-07-20T17:29:40.978Z,25.92
2018-07-20T17:32:09.952Z,25.90
2018-07-20T17:34:39.043Z,25.86
2018-07-20T17:37:07.900Z,25.84
2018-07-20T17:39:36.553Z,25.92
2018-07-20T17:42:06.082Z,25.89
2018-07-20T17:44:34.951Z,25.97
2018-07-20T17:47:03.787Z,25.86
2018-07-20T17:49:32.583Z,25.99
2018-07-20T17:52:01.596Z,25.81
2018-07-20T17:54:30.779Z,25.69
2018-07-20T17:56:59.764Z,25.67
2018-07-20T17:59:28.650Z,25.75
2018-07-20T18:01:57.422Z,25.65
2018-07-20T18:04:26.883Z,25.67
2018-07-20T18:06:55.755Z,25.46
2018-07-20T18:09:24.812Z,25.45
2018-07-20T18:11:53.672Z,25.27
2018-07-20T18:14:22.916Z,25.24
2018-07-20T18:16:51.983Z,25.14
2018-07-20T18:19:20.920Z,25.08
2018-07-20T18:21:49.577Z,25.02
2018-07-20T18:24:18.817Z,24.97
2018-07-20T18:26:47.687Z,24.88
2018-07-20T18:29:16.480Z,24.79
2018-07-20T18:31:45.408Z,24.80
2018-07-20T18:34:14.221Z,24.69
2018-07-20T18:36:43.127Z,24.73
2018-07-20T18:39:12.532Z,24.61
2018-07-20T18:41:41.700Z,24.55
2018-07-20T18:44:10.784Z,24.48
2018-07-20T18:46:39.662Z,24.46
2018-07-20T18:49:08.719Z,24.37
2018-07-20T18:51:37.567Z,24.30
2018-07-20T18:54:06.496Z,24.26
2018-07-20T18:56:36.151Z,24.22
2018-07-20T18:59:05.030Z,24.11
2018-07-20T19:01:33.665Z,24.03
2018-07-20T19:04:02.588Z,23.98
2018-07-20T19:06:31.419Z,23.94
2018-07-20T19:09:00.281Z,23.86
2018-07-20T19:11:29.260Z,23.82
2018-07-20T19:13:58.021Z,23.76
2018-07-20T19:16:26.952Z,23.77
2018-07-20T19:18:56.744Z,23.65
2018-07-20T19:21:25.735Z,23.59
2018-07-20T19:23:55.778Z,23.52
2018-07-20T19:26:25.227Z,23.43
2018-07-20T19:28:54.028Z,23.37
2018-07-20T19:31:22.818Z,23.37
2018-07-20T19:33:51.703Z,23.25
2018-07-20T19:36:20.875Z,23.19
2018-07-20T19:38:49.923Z,23.12
2018-07-20T19:41:18.724Z,23.09
2018-07-20T19:43:47.563Z,23.06
2018-07-20T19:46:17.133Z,22.90
2018-07-20T19:48:45.948Z,22.84
2018-07-20T19:51:14.704Z,22.76
2018-07-20T19:53:43.867Z,22.76
2018-07-20T19:56:13.296Z,22.63
2018-07-20T19:58:42.675Z,22.59
2018-07-20T20:01:12.164Z,22.52
2018-07-20T20:03:41.022Z,22.44
2018-07-20T20:06:09.782Z,22.40
2018-07-20T20:08:38.919Z,22.38
2018-07-20T20:11:08.448Z,22.31
2018-07-20T20:13:37.507Z,22.22
2018-07-20T20:16:06.331Z,22.29
2018-07-20T20:18:35.219Z,22.20
2018-07-20T20:21:04.066Z,22.09
2018-07-20T20:23:32.903Z,22.08
2018-07-20T20:26:02.567Z,22.01
2018-07-20T20:28:31.340Z,21.96
2018-07-20T20:31:00.165Z,21.92
2018-07-20T20:33:28.963Z,21.90
2018-07-20T20:35:58.074Z,21.84
2018-07-20T20:38:27.395Z,21.81
2018-07-20T20:40:56.235Z,21.72
2018-07-20T20:43:25.424Z,21.75
2018-07-20T20:45:54.263Z,21.70
2018-07-20T20:48:23.121Z,21.67
2018-07-20T20:50:51.946Z,21.47
2018-07-20T20:53:20.772Z,21.56
2018-07-20T20:55:49.652Z,21.40
2018-07-20T20:58:18.414Z,21.28
2018-07-20T21:00:47.324Z,21.23
2018-07-20T21:03:16.178Z,21.23
2018-07-20T21:05:44.980Z,21.29
2018-07-20T21:08:13.587Z,21.07
2018-07-20T21:10:42.398Z,21.11
2018-07-20T21:13:11.043Z,20.94
2018-07-20T21:15:39.860Z,20.92
2018-07-20T21:18:08.723Z,20.94
2018-07-20T21:20:37.620Z,20.89
2018-07-20T21:23:06.409Z,21.02
2018-07-20T21:25:35.344Z,20.86
2018-07-20T21:28:04.135Z,20.84
2018-07-20T21:30:32.898Z,20.81
2018-07-20T21:33:01.760Z,20.61
2018-07-20T21:35:30.368Z,20.64
2018-07-20T21:37:59.280Z,20.57
2018-07-20T21:40:28.022Z,20.44
2018-07-20T21:42:56.828Z,20.62
2018-07-20T21:45:31.696Z,20.24
2018-07-20T21:48:00.634Z,20.35
2018-07-20T21:50:29.243Z,20.29
2018-07-20T21:52:58.064Z,20.11
2018-07-20T21:55:26.903Z,20.22
2018-07-20T21:57:55.719Z,20.19
2018-07-20T22:00:24.629Z,20.15
2018-07-20T22:02:53.480Z,19.95
2018-07-20T22:05:22.057Z,19.91
2018-07-20T22:07:50.868Z,19.80
2018-07-20T22:10:19.671Z,19.76
2018-07-20T22:12:48.839Z,19.72
2018-07-20T22:15:17.595Z,19.77
2018-07-20T22:17:46.427Z,19.75
2018-07-20T22:20:15.234Z,19.69
2018-07-20T22:22:44.041Z,19.65
2018-07-20T22:25:12.944Z,19.61
2018-07-20T22:27:41.709Z,19.57
2018-07-20T22:30:10.599Z,19.45
2018-07-20T22:32:39.380Z,19.44
2018-07-20T22:35:08.684Z,19.39
2018-07-20T22:37:37.530Z,19.33
2018-07-20T22:40:06.876Z,19.30
2018-07-20T22:42:35.722Z,19.27
2018-07-20T22:45:04.649Z,19.25
2018-07-20T22:47:33.235Z,19.25
2018-07-20T22:50:02.195Z,19.33
2018-07-20T22:52:30.948Z,19.19
2018-07-20T22:54:59.731Z,19.18
2018-07-20T22:57:28.606Z,19.09
2018-07-20T22:59:57.225Z,19.07
2018-07-20T23:02:26.192Z,19.07
2018-07-20T23:04:54.987Z,19.06
2018-07-20T23:07:23.813Z,19.06
2018-07-20T23:09:52.656Z,19.01
2018-07-20T23:12:21.282Z,19.03
2018-07-20T23:14:50.021Z,18.98
2018-07-20T23:17:18.932Z,19.08
2018-07-20T23:19:47.728Z,19.12
2018-07-20T23:22:16.570Z,19.01
2018-07-20T23:24:45.344Z,18.98
2018-07-20T23:27:14.321Z,18.99
2018-07-20T23:29:43.102Z,18.99
2018-07-20T23:32:11.999Z,18.96
2018-07-20T23:34:40.748Z,19.01
2018-07-20T23:37:09.570Z,18.98
2018-07-20T23:39:38.395Z,18.98
2018-07-20T23:42:07.207Z,18.99
2018-07-20T23:44:35.990Z,19.05
2018-07-20T23:47:04.972Z,18.95
2018-07-20T23:49:33.754Z,18.92
2018-07-20T23:52:02.637Z,18.89
2018-07-20T23:54:31.387Z,18.94
2018-07-20T23:57:00.222Z,18.81
2018-07-20T23:59:28.978Z,18.77
